Terminal Aerodrome Forecast
Issued by NWS

Home | Current Version | Previous Version | Text Only | Print | Product List | Glossary On
Versions: 1 2 3 4 5 6 7 8 9 10 11 12 13 14 15 16 17 18 19 20 21 22 23 24 25 26 27 28
000
FTUS43 KGLD 311720
TAFMCK
TAF
KMCK 311720Z 3118/0118 10006KT 3/4SM BR OVC002
     FM312100 06005KT 3/4SM BR OVC004
     FM010000 02005KT 3/4SM -RA BR OVC004
     FM010600 35015G25KT 1 1/2SM -RA BR OVC004
     FM011200 34020G30KT P6SM OVC015=

USA.gov is the U.S. government's official web portal to all federal, state and local government web resources and services.